createdAt,value
2022-08-03T00:00:02.085Z,64.88
2022-08-03T00:01:02.030Z,63.49
2022-08-03T00:02:02.119Z,62.11
2022-08-03T00:03:02.110Z,64.68
2022-08-03T00:04:02.006Z,65.15
2022-08-03T00:05:01.984Z,62.62
2022-08-03T00:06:04.750Z,60.17
2022-08-03T00:07:01.991Z,61.79
2022-08-03T00:08:01.924Z,61.34
2022-08-03T00:09:01.964Z,61.32
2022-08-03T00:10:01.917Z,61.60
2022-08-03T00:11:01.935Z,63.23
2022-08-03T00:12:01.969Z,60.30
2022-08-03T00:13:01.861Z,61.56
2022-08-03T00:14:01.854Z,64.00
2022-08-03T00:15:02.841Z,62.92
2022-08-03T00:16:01.796Z,60.63
2022-08-03T00:17:01.825Z,61.07
2022-08-03T00:18:01.810Z,63.43
2022-08-03T00:19:02.127Z,62.55
2022-08-03T00:20:01.760Z,62.09
2022-08-03T00:21:01.778Z,61.71
2022-08-03T00:22:01.754Z,64.27
2022-08-03T00:23:01.732Z,62.50
2022-08-03T00:24:01.726Z,60.96
2022-08-03T00:25:01.689Z,63.53
2022-08-03T00:26:01.668Z,60.72
2022-08-03T00:27:01.693Z,59.90
2022-08-03T00:28:01.645Z,61.49
2022-08-03T00:29:01.723Z,61.71
2022-08-03T00:30:01.616Z,60.06
2022-08-03T00:31:01.583Z,61.34
2022-08-03T00:32:01.599Z,60.88
2022-08-03T00:33:01.570Z,63.01
2022-08-03T00:34:03.496Z,62.47
2022-08-03T00:35:07.894Z,60.97
2022-08-03T00:36:02.519Z,61.13
2022-08-03T00:37:01.517Z,59.15
2022-08-03T00:38:01.479Z,61.85
2022-08-03T00:39:01.517Z,61.91
2022-08-03T00:40:01.441Z,62.06
2022-08-03T00:41:01.429Z,62.48
2022-08-03T00:42:01.422Z,60.59
2022-08-03T00:43:01.424Z,61.54
2022-08-03T00:44:01.476Z,62.24
2022-08-03T00:45:01.363Z,61.64
2022-08-03T00:46:01.445Z,59.02
2022-08-03T00:47:01.315Z,61.52
2022-08-03T00:48:01.356Z,61.79
2022-08-03T00:49:02.332Z,59.51
2022-08-03T00:50:01.299Z,62.08
2022-08-03T00:51:01.224Z,61.85
2022-08-03T00:52:01.246Z,59.46
2022-08-03T00:53:02.277Z,61.89
2022-08-03T00:54:01.187Z,61.78
2022-08-03T00:55:01.178Z,61.17
2022-08-03T00:56:01.193Z,60.17
2022-08-03T00:57:01.137Z,61.18
2022-08-03T00:58:01.156Z,62.70
2022-08-03T00:59:02.131Z,63.20
2022-08-03T01:00:01.114Z,62.20
2022-08-03T01:01:01.135Z,63.76
2022-08-03T01:02:01.094Z,62.24
2022-08-03T01:03:01.099Z,61.45
2022-08-03T01:04:01.041Z,61.90
2022-08-03T01:05:01.047Z,61.72
2022-08-03T01:06:00.989Z,59.43
2022-08-03T01:07:00.978Z,59.22
2022-08-03T01:08:01.027Z,58.85
2022-08-03T01:09:00.939Z,60.92
2022-08-03T01:10:00.953Z,62.67
2022-08-03T01:11:00.937Z,61.70
2022-08-03T01:12:01.830Z,62.11
2022-08-03T01:13:01.928Z,60.63
2022-08-03T01:14:04.288Z,60.94
2022-08-03T01:15:01.857Z,60.35
2022-08-03T01:16:00.827Z,62.31
2022-08-03T01:17:00.827Z,63.00
2022-08-03T01:18:00.846Z,62.46
2022-08-03T01:19:00.787Z,62.67
2022-08-03T01:20:00.796Z,62.80
2022-08-03T01:21:00.807Z,64.15
2022-08-03T01:22:00.743Z,64.60
2022-08-03T01:23:00.757Z,63.92
2022-08-03T01:24:00.728Z,64.34
2022-08-03T01:25:00.677Z,61.91
2022-08-03T01:26:00.672Z,64.08
2022-08-03T01:27:00.665Z,63.72
2022-08-03T01:28:00.684Z,62.72
2022-08-03T01:29:00.615Z,62.88
2022-08-03T01:30:00.660Z,63.49
2022-08-03T01:31:00.603Z,61.93
2022-08-03T01:32:59.363Z,63.16
2022-08-03T01:33:02.070Z,63.42
2022-08-03T01:34:01.554Z,64.73
2022-08-03T01:35:00.539Z,61.93
2022-08-03T01:36:00.558Z,63.00
2022-08-03T01:37:00.509Z,63.25
2022-08-03T01:38:00.494Z,62.47
2022-08-03T01:39:00.485Z,62.25
2022-08-03T01:40:00.459Z,61.37
2022-08-03T01:41:00.436Z,63.19
2022-08-03T01:42:00.459Z,61.57
2022-08-03T01:43:00.423Z,64.11
2022-08-03T01:44:29.044Z,64.76
2022-08-03T01:45:01.373Z,62.10
2022-08-03T01:46:00.335Z,63.00
2022-08-03T01:47:00.341Z,63.56
2022-08-03T01:48:00.402Z,63.97
2022-08-03T01:49:00.328Z,61.58
2022-08-03T01:50:01.294Z,61.94
2022-08-03T01:51:00.281Z,64.38
2022-08-03T01:52:05.056Z,61.68
2022-08-03T01:53:01.261Z,63.86
2022-08-03T01:54:00.225Z,63.25
2022-08-03T01:55:00.207Z,64.82
2022-08-03T01:56:00.163Z,61.64
2022-08-03T01:57:00.149Z,61.91
2022-08-03T01:58:06.040Z,62.67
2022-08-03T01:59:01.157Z,62.83
2022-08-03T02:00:00.150Z,60.12
2022-08-03T02:01:00.175Z,63.84
2022-08-03T02:02:27.740Z,63.26
2022-08-03T02:03:01.088Z,62.62
2022-08-03T02:04:01.175Z,62.20
2022-08-03T02:05:00.022Z,62.42
2022-08-03T02:06:55.626Z,62.13
2022-08-03T02:07:03.339Z,62.26
2022-08-03T02:08:01.008Z,62.98
2022-08-03T02:08:59.985Z,63.38
2022-08-03T02:09:59.988Z,62.31
2022-08-03T02:10:59.934Z,64.06
2022-08-03T02:11:59.910Z,66.46
2022-08-03T02:12:59.970Z,64.76
2022-08-03T02:13:59.877Z,62.39
2022-08-03T02:15:00.047Z,61.72
2022-08-03T02:15:59.859Z,62.08
2022-08-03T02:16:59.821Z,64.59
2022-08-03T02:17:59.835Z,62.71
2022-08-03T02:18:59.823Z,62.46
2022-08-03T02:19:59.775Z,62.89
2022-08-03T02:20:59.768Z,65.59
2022-08-03T02:22:01.112Z,64.16
2022-08-03T02:22:59.777Z,64.89
2022-08-03T02:23:59.701Z,63.44
2022-08-03T02:24:59.743Z,65.72
2022-08-03T02:26:01.972Z,64.23
2022-08-03T02:26:59.661Z,61.89
2022-08-03T02:28:00.751Z,66.17
2022-08-03T02:28:59.644Z,62.99
2022-08-03T02:29:59.643Z,64.59
2022-08-03T02:30:59.652Z,64.77
2022-08-03T02:31:59.590Z,63.17
2022-08-03T02:32:59.589Z,63.79
2022-08-03T02:33:59.572Z,63.71
2022-08-03T02:34:59.558Z,64.12
2022-08-03T02:35:59.504Z,65.81
2022-08-03T02:36:59.525Z,63.97
2022-08-03T02:37:59.532Z,63.10
2022-08-03T02:38:59.466Z,62.93
2022-08-03T02:39:59.467Z,65.52
2022-08-03T02:40:59.432Z,65.67
2022-08-03T02:41:59.450Z,65.44
2022-08-03T02:42:59.456Z,64.60
2022-08-03T02:44:06.557Z,63.25
2022-08-03T02:45:00.382Z,62.94
2022-08-03T02:45:59.350Z,63.39
2022-08-03T02:46:59.343Z,64.71
2022-08-03T02:47:59.366Z,61.13
2022-08-03T02:48:59.339Z,63.19
2022-08-03T02:50:01.394Z,64.50
2022-08-03T02:50:59.694Z,63.90
2022-08-03T02:51:59.234Z,62.86
2022-08-03T02:52:59.281Z,64.38
2022-08-03T02:53:59.219Z,64.37
2022-08-03T02:54:59.185Z,62.86
2022-08-03T02:55:59.209Z,64.20
2022-08-03T02:56:59.179Z,64.67
2022-08-03T02:58:01.305Z,64.27
2022-08-03T02:58:59.144Z,66.42
2022-08-03T02:59:59.102Z,62.90
2022-08-03T03:00:59.117Z,64.09
2022-08-03T03:01:59.110Z,63.62
2022-08-03T03:02:59.578Z,64.07
2022-08-03T03:03:59.057Z,64.45
2022-08-03T03:05:56.152Z,64.26
2022-08-03T03:06:00.023Z,63.36
2022-08-03T03:06:58.980Z,64.00
2022-08-03T03:07:59.038Z,60.97
2022-08-03T03:08:59.924Z,62.26
2022-08-03T03:09:59.948Z,65.18
2022-08-03T03:10:58.951Z,64.42
2022-08-03T03:11:58.921Z,63.44
2022-08-03T03:12:58.914Z,65.68
2022-08-03T03:13:58.925Z,66.85
2022-08-03T03:14:58.865Z,64.27
2022-08-03T03:15:58.888Z,64.49
2022-08-03T03:16:58.847Z,65.02
2022-08-03T03:17:58.866Z,65.53
2022-08-03T03:18:58.802Z,63.08
2022-08-03T03:19:58.841Z,64.61
2022-08-03T03:20:58.760Z,63.25
2022-08-03T03:21:58.779Z,63.92
2022-08-03T03:22:58.752Z,65.45
2022-08-03T03:23:58.754Z,66.12
2022-08-03T03:24:58.707Z,65.15
2022-08-03T03:25:58.684Z,65.12
2022-08-03T03:26:58.681Z,65.12
2022-08-03T03:27:58.695Z,66.14
2022-08-03T03:28:58.629Z,64.33
2022-08-03T03:29:58.634Z,65.86
2022-08-03T03:30:58.622Z,65.89
2022-08-03T03:31:58.597Z,64.82
2022-08-03T03:32:58.607Z,64.99
2022-08-03T03:33:58.547Z,64.76
2022-08-03T03:34:58.533Z,65.61
2022-08-03T03:35:58.542Z,65.18
2022-08-03T03:36:58.500Z,64.17
2022-08-03T03:37:58.521Z,65.28
2022-08-03T03:38:58.507Z,64.96
2022-08-03T03:39:58.469Z,64.80
2022-08-03T03:40:58.449Z,66.17
2022-08-03T03:41:58.428Z,65.30
2022-08-03T03:42:58.432Z,64.58
2022-08-03T03:43:58.405Z,67.22
2022-08-03T03:44:58.367Z,66.36
2022-08-03T03:45:58.395Z,65.29
2022-08-03T03:46:58.324Z,65.85
2022-08-03T03:47:58.338Z,66.38
2022-08-03T03:48:58.381Z,66.50
2022-08-03T03:49:58.281Z,66.03
2022-08-03T03:50:58.274Z,64.50
2022-08-03T03:51:58.263Z,65.88
2022-08-03T03:52:58.249Z,64.43
2022-08-03T03:53:58.230Z,65.84
2022-08-03T03:55:01.003Z,64.81
2022-08-03T03:56:02.441Z,65.41
2022-08-03T03:56:58.165Z,66.66
2022-08-03T03:57:58.143Z,64.68
2022-08-03T03:58:58.149Z,63.92
2022-08-03T03:59:58.096Z,64.94
2022-08-03T04:00:58.216Z,63.75
2022-08-03T04:01:59.258Z,65.17
2022-08-03T04:02:58.062Z,66.57
2022-08-03T04:03:58.077Z,66.10
2022-08-03T04:04:58.029Z,65.12
2022-08-03T04:05:57.998Z,65.90
2022-08-03T04:06:57.980Z,66.45
2022-08-03T04:07:57.956Z,64.44
2022-08-03T04:08:57.986Z,65.40
2022-08-03T04:09:57.928Z,66.13
2022-08-03T04:10:58.904Z,66.58
2022-08-03T04:11:57.940Z,65.10
2022-08-03T04:12:57.887Z,66.00
2022-08-03T04:13:57.880Z,66.81
2022-08-03T04:14:58.862Z,66.02
2022-08-03T04:15:57.844Z,64.56
2022-08-03T04:16:57.817Z,65.42
2022-08-03T04:17:57.792Z,66.31
2022-08-03T04:18:57.820Z,67.09
2022-08-03T04:19:57.755Z,66.94
2022-08-03T04:20:57.739Z,65.27
2022-08-03T04:21:57.732Z,65.27
2022-08-03T04:22:57.713Z,64.98
2022-08-03T04:23:57.693Z,64.91
2022-08-03T04:24:57.696Z,64.12
2022-08-03T04:25:57.647Z,65.28
2022-08-03T04:26:57.642Z,64.54
2022-08-03T04:28:29.640Z,65.59
2022-08-03T04:28:58.664Z,64.93
2022-08-03T04:29:57.587Z,67.49
2022-08-03T04:30:57.549Z,65.90
2022-08-03T04:31:57.558Z,66.40
2022-08-03T04:32:57.563Z,64.62
2022-08-03T04:33:57.553Z,64.62
2022-08-03T04:34:57.484Z,64.89
2022-08-03T04:36:01.741Z,66.49
2022-08-03T04:36:58.568Z,63.66
2022-08-03T04:37:57.455Z,65.48
2022-08-03T04:38:57.491Z,64.89
2022-08-03T04:39:57.707Z,65.81
2022-08-03T04:40:57.424Z,65.60
2022-08-03T04:42:07.613Z,65.17
2022-08-03T04:42:58.348Z,65.95
2022-08-03T04:43:57.345Z,64.45
2022-08-03T04:45:01.016Z,64.63
2022-08-03T04:45:58.314Z,65.07
2022-08-03T04:46:57.312Z,65.13
2022-08-03T04:47:57.302Z,65.08
2022-08-03T04:48:57.364Z,64.56
2022-08-03T04:49:57.260Z,63.99
2022-08-03T04:50:57.250Z,64.61
2022-08-03T04:51:57.189Z,65.85
2022-08-03T04:52:57.158Z,65.91
2022-08-03T04:53:57.230Z,66.40
2022-08-03T04:54:57.134Z,65.07
2022-08-03T04:55:57.122Z,63.23
2022-08-03T04:56:57.187Z,65.04
2022-08-03T04:57:57.120Z,65.18
2022-08-03T04:58:57.126Z,65.31
2022-08-03T05:00:02.455Z,64.63
2022-08-03T05:00:59.042Z,63.94
2022-08-03T05:01:57.066Z,64.74
2022-08-03T05:02:57.049Z,65.67
2022-08-03T05:03:57.061Z,65.46
2022-08-03T05:04:57.006Z,65.44
2022-08-03T05:06:01.494Z,64.33
2022-08-03T05:06:58.000Z,65.72
2022-08-03T05:07:56.955Z,64.40
2022-08-03T05:08:57.010Z,64.79
2022-08-03T05:10:01.699Z,64.24
2022-08-03T05:10:59.082Z,63.93
2022-08-03T05:11:56.881Z,62.01
2022-08-03T05:12:56.896Z,63.79
2022-08-03T05:13:56.878Z,63.07
2022-08-03T05:14:56.945Z,64.11
2022-08-03T05:15:56.855Z,64.08
2022-08-03T05:16:56.794Z,63.62
2022-08-03T05:17:56.819Z,62.92
2022-08-03T05:18:56.830Z,62.84
2022-08-03T05:19:56.782Z,62.62
2022-08-03T05:20:56.765Z,62.56
2022-08-03T05:21:56.730Z,60.81
2022-08-03T05:22:56.702Z,62.33
2022-08-03T05:23:56.754Z,62.58
2022-08-03T05:24:56.664Z,63.93
2022-08-03T05:25:56.627Z,63.61
2022-08-03T05:26:56.639Z,62.31
2022-08-03T05:27:56.707Z,62.68
2022-08-03T05:28:56.628Z,62.20
2022-08-03T05:29:56.613Z,62.40
2022-08-03T05:30:57.574Z,62.05
2022-08-03T05:31:56.525Z,63.08
2022-08-03T05:32:56.559Z,61.66
2022-08-03T05:33:56.561Z,59.98
2022-08-03T05:34:56.480Z,62.92
2022-08-03T05:36:03.538Z,63.35
2022-08-03T05:36:58.543Z,61.44
2022-08-03T05:37:56.466Z,62.34
2022-08-03T05:39:30.031Z,61.96
2022-08-03T05:39:56.402Z,61.29
2022-08-03T05:40:57.552Z,62.29
2022-08-03T05:41:57.369Z,62.46
2022-08-03T05:42:56.350Z,60.98
2022-08-03T05:43:56.369Z,62.12
2022-08-03T05:44:56.316Z,60.33
2022-08-03T05:46:12.425Z,62.27
2022-08-03T05:46:57.296Z,60.90
2022-08-03T05:47:56.295Z,59.30
2022-08-03T05:48:56.340Z,61.51
2022-08-03T05:49:56.250Z,60.80
2022-08-03T05:50:56.245Z,60.78
2022-08-03T05:52:00.457Z,60.57
2022-08-03T05:52:57.194Z,61.60
2022-08-03T05:53:56.218Z,61.35
2022-08-03T05:54:57.756Z,62.24
2022-08-03T05:55:59.300Z,61.77
2022-08-03T05:56:58.183Z,60.46
2022-08-03T05:57:56.735Z,61.12
2022-08-03T05:58:56.281Z,61.52
2022-08-03T05:59:58.297Z,61.68
2022-08-03T06:00:56.075Z,59.69
2022-08-03T06:01:56.274Z,61.65
2022-08-03T06:02:56.050Z,60.99
2022-08-03T06:03:56.093Z,60.15
2022-08-03T06:04:57.083Z,60.99
2022-08-03T06:06:00.338Z,59.98
2022-08-03T06:06:56.002Z,59.62
2022-08-03T06:07:56.021Z,60.61
2022-08-03T06:08:56.101Z,61.43
2022-08-03T06:10:35.601Z,58.83
2022-08-03T06:10:57.017Z,60.75
2022-08-03T06:11:55.981Z,60.38
2022-08-03T06:12:55.967Z,60.65
2022-08-03T06:13:55.970Z,60.00
2022-08-03T06:14:55.863Z,60.64
2022-08-03T06:15:55.859Z,60.81
2022-08-03T06:16:56.867Z,59.76
2022-08-03T06:17:58.711Z,60.10
2022-08-03T06:18:57.858Z,59.11
2022-08-03T06:19:55.829Z,60.15
2022-08-03T06:20:55.776Z,60.23
2022-08-03T06:21:55.804Z,60.84
2022-08-03T06:23:00.359Z,61.77
2022-08-03T06:23:56.779Z,59.80
2022-08-03T06:24:56.733Z,60.73
2022-08-03T06:25:55.777Z,59.21
2022-08-03T06:26:55.791Z,60.40
2022-08-03T06:27:55.673Z,60.17
2022-08-03T06:28:55.682Z,59.07
2022-08-03T06:29:55.693Z,61.07
2022-08-03T06:30:55.618Z,60.04
2022-08-03T06:31:55.633Z,59.59
2022-08-03T06:32:55.598Z,60.13
2022-08-03T06:34:33.153Z,61.89
2022-08-03T06:34:56.638Z,61.14
2022-08-03T06:35:55.552Z,60.44
2022-08-03T06:37:01.728Z,58.15
2022-08-03T06:37:57.532Z,60.93
2022-08-03T06:38:55.509Z,60.59
2022-08-03T06:39:55.532Z,59.93
2022-08-03T06:40:55.518Z,58.06
2022-08-03T06:41:55.499Z,60.54
2022-08-03T06:42:55.457Z,60.39
2022-08-03T06:44:03.948Z,59.67
2022-08-03T06:44:56.449Z,61.11
2022-08-03T06:45:55.411Z,58.55
2022-08-03T06:46:55.400Z,60.27
2022-08-03T06:47:55.369Z,60.28
2022-08-03T06:48:55.380Z,59.59
2022-08-03T06:50:12.642Z,59.96
2022-08-03T06:50:56.484Z,59.39
2022-08-03T06:52:06.262Z,59.66
2022-08-03T06:52:56.349Z,60.93
2022-08-03T06:53:55.289Z,58.35
2022-08-03T06:54:55.314Z,57.61
2022-08-03T06:55:55.491Z,59.68
2022-08-03T06:56:55.232Z,59.15
2022-08-03T06:57:55.236Z,58.83
2022-08-03T06:58:55.239Z,58.48
2022-08-03T07:00:05.993Z,59.52
2022-08-03T07:00:56.213Z,58.81
2022-08-03T07:01:55.232Z,59.48
2022-08-03T07:02:58.279Z,58.66
2022-08-03T07:03:56.190Z,58.79
2022-08-03T07:04:55.174Z,59.06
2022-08-03T07:05:55.106Z,61.08
2022-08-03T07:06:55.136Z,59.51
2022-08-03T07:07:55.087Z,59.60
2022-08-03T07:08:59.195Z,59.34
2022-08-03T07:09:57.618Z,58.34
2022-08-03T07:10:55.067Z,59.42
2022-08-03T07:11:55.092Z,58.17
2022-08-03T07:12:56.097Z,57.60
2022-08-03T07:13:55.185Z,58.20
2022-08-03T07:14:59.792Z,59.78
2022-08-03T07:15:56.989Z,59.82
2022-08-03T07:16:55.971Z,60.97
2022-08-03T07:17:54.949Z,59.45
2022-08-03T07:18:54.981Z,58.29
2022-08-03T07:19:55.123Z,58.78
2022-08-03T07:20:54.936Z,59.47
2022-08-03T07:21:54.888Z,57.82
2022-08-03T07:22:55.904Z,59.29
2022-08-03T07:23:54.897Z,57.75
2022-08-03T07:24:54.897Z,57.91
2022-08-03T07:25:54.858Z,56.78
2022-08-03T07:26:54.856Z,60.07
2022-08-03T07:27:54.830Z,57.32
2022-08-03T07:28:54.792Z,56.83
2022-08-03T07:29:54.845Z,59.90
2022-08-03T07:30:54.813Z,60.53
2022-08-03T07:31:54.757Z,60.87
2022-08-03T07:32:54.777Z,59.83
2022-08-03T07:33:54.772Z,61.41
2022-08-03T07:34:58.503Z,60.77
2022-08-03T07:35:56.728Z,60.27
2022-08-03T07:36:54.685Z,62.39
2022-08-03T07:37:55.238Z,59.07
2022-08-03T07:38:54.673Z,59.82
2022-08-03T07:39:54.752Z,61.69
2022-08-03T07:40:54.654Z,60.78
2022-08-03T07:41:54.645Z,59.19
2022-08-03T07:42:54.619Z,59.83
2022-08-03T07:43:54.641Z,59.56
2022-08-03T07:44:54.633Z,59.56
2022-08-03T07:45:54.604Z,60.46
2022-08-03T07:46:54.591Z,60.10
2022-08-03T07:47:54.613Z,58.76
2022-08-03T07:48:54.570Z,60.97
2022-08-03T07:49:54.733Z,60.38
2022-08-03T07:50:54.517Z,59.73
2022-08-03T07:51:54.558Z,61.14
2022-08-03T07:52:54.480Z,58.94
2022-08-03T07:53:54.461Z,61.28
2022-08-03T07:54:54.530Z,61.35
2022-08-03T07:55:54.470Z,61.09
2022-08-03T07:56:54.459Z,60.48
2022-08-03T07:57:54.419Z,58.35
2022-08-03T07:58:54.465Z,60.39
2022-08-03T08:00:01.737Z,59.18
2022-08-03T08:00:55.420Z,58.75
2022-08-03T08:01:54.391Z,58.32
2022-08-03T08:02:54.369Z,59.56
2022-08-03T08:03:54.385Z,59.79
2022-08-03T08:04:54.409Z,60.72
2022-08-03T08:05:54.362Z,59.93
2022-08-03T08:06:54.300Z,59.97
2022-08-03T08:07:54.307Z,60.37
2022-08-03T08:08:54.295Z,61.21
2022-08-03T08:09:54.298Z,60.95
2022-08-03T08:10:58.256Z,60.71
2022-08-03T08:11:54.253Z,60.59
2022-08-03T08:12:54.235Z,58.77
2022-08-03T08:13:54.248Z,60.26
2022-08-03T08:14:54.219Z,59.58
2022-08-03T08:15:54.291Z,58.06
2022-08-03T08:16:54.177Z,55.82
2022-08-03T08:17:54.196Z,57.47
2022-08-03T08:18:54.226Z,57.47
2022-08-03T08:19:55.545Z,57.05
2022-08-03T08:20:54.137Z,57.11
2022-08-03T08:22:02.637Z,57.47
2022-08-03T08:22:55.103Z,57.83
2022-08-03T08:23:55.607Z,54.01
2022-08-03T08:24:54.088Z,54.01
2022-08-03T08:25:54.060Z,56.15
2022-08-03T08:26:54.192Z,55.50
2022-08-03T08:28:29.586Z,56.56
2022-08-03T08:28:55.005Z,55.18
2022-08-03T08:29:54.583Z,58.69
2022-08-03T08:30:54.056Z,55.29
2022-08-03T08:31:53.960Z,59.01
2022-08-03T08:32:53.980Z,57.77
2022-08-03T08:34:09.230Z,58.50
2022-08-03T08:34:56.628Z,58.37
2022-08-03T08:35:53.917Z,57.68
2022-08-03T08:36:53.916Z,56.23
2022-08-03T08:37:53.921Z,59.69
2022-08-03T08:38:53.876Z,56.88
2022-08-03T08:39:53.890Z,60.23
2022-08-03T08:40:53.889Z,58.81
2022-08-03T08:41:53.855Z,57.48
2022-08-03T08:42:58.924Z,57.77
2022-08-03T08:44:00.023Z,56.33
2022-08-03T08:44:54.885Z,56.85
2022-08-03T08:45:53.806Z,56.68
2022-08-03T08:46:53.785Z,56.13
2022-08-03T08:47:58.247Z,56.37
2022-08-03T08:48:55.835Z,57.84
2022-08-03T08:50:09.416Z,58.78
2022-08-03T08:50:55.781Z,58.88
2022-08-03T08:52:00.900Z,58.10
2022-08-03T08:52:55.746Z,57.28
2022-08-03T08:53:53.748Z,57.10
2022-08-03T08:54:53.717Z,57.81
2022-08-03T08:55:58.790Z,58.23
2022-08-03T08:56:54.675Z,58.43
2022-08-03T08:57:53.653Z,57.21
2022-08-03T08:58:53.625Z,55.79
2022-08-03T08:59:57.268Z,58.17
2022-08-03T09:00:54.691Z,55.37
2022-08-03T09:01:53.593Z,58.87
2022-08-03T09:02:53.590Z,58.66
2022-08-03T09:03:53.607Z,57.39
2022-08-03T09:04:53.598Z,59.00
2022-08-03T09:05:56.098Z,56.79
2022-08-03T09:07:18.663Z,57.00
2022-08-03T09:07:55.513Z,57.17
2022-08-03T09:08:53.543Z,56.37
2022-08-03T09:10:10.637Z,58.79
2022-08-03T09:10:54.513Z,56.95
2022-08-03T09:12:01.210Z,56.33
2022-08-03T09:12:54.473Z,56.57
2022-08-03T09:13:53.452Z,57.13
2022-08-03T09:15:14.694Z,55.83
2022-08-03T09:16:00.790Z,58.42
2022-08-03T09:16:54.400Z,59.19
2022-08-03T09:17:53.433Z,57.20
2022-08-03T09:18:53.411Z,56.45
2022-08-03T09:20:03.429Z,57.05
2022-08-03T09:20:54.391Z,58.68
2022-08-03T09:21:53.372Z,57.48
2022-08-03T09:22:53.331Z,57.06
2022-08-03T09:24:02.251Z,57.46
2022-08-03T09:25:21.484Z,57.99
2022-08-03T09:25:55.599Z,57.63
2022-08-03T09:26:53.854Z,58.71
2022-08-03T09:27:53.498Z,57.43
2022-08-03T09:29:03.888Z,58.10
2022-08-03T09:29:54.259Z,57.47
2022-08-03T09:30:53.282Z,58.12
2022-08-03T09:31:53.224Z,56.49
2022-08-03T09:32:53.222Z,57.80
2022-08-03T09:33:53.217Z,59.04
2022-08-03T09:34:57.826Z,56.56
2022-08-03T09:35:57.614Z,57.05
2022-08-03T09:36:53.210Z,58.67
2022-08-03T09:38:11.882Z,58.41
2022-08-03T09:38:54.135Z,57.63
2022-08-03T09:39:53.132Z,56.79
2022-08-03T09:40:57.464Z,57.81
2022-08-03T09:41:55.115Z,59.15
2022-08-03T09:42:53.098Z,59.56
2022-08-03T09:43:53.103Z,60.17
2022-08-03T09:44:53.094Z,58.78
2022-08-03T09:45:53.125Z,57.09
2022-08-03T09:46:53.038Z,57.76
2022-08-03T09:47:53.025Z,56.08
2022-08-03T09:48:53.019Z,58.19
2022-08-03T09:49:52.992Z,57.11
2022-08-03T09:50:58.605Z,56.86
2022-08-03T09:52:37.773Z,55.25
2022-08-03T09:52:53.961Z,57.77
2022-08-03T09:53:59.178Z,57.27
2022-08-03T09:54:53.960Z,54.83
2022-08-03T09:56:35.530Z,59.13
2022-08-03T09:56:53.966Z,57.50
2022-08-03T09:57:52.887Z,59.29
2022-08-03T09:58:52.906Z,58.90
2022-08-03T10:00:01.897Z,60.76
2022-08-03T10:00:55.240Z,60.62
2022-08-03T10:01:52.918Z,60.63
2022-08-03T10:02:52.862Z,59.86
2022-08-03T10:04:04.504Z,58.30
2022-08-03T10:04:54.839Z,59.10
2022-08-03T10:05:57.494Z,58.88
2022-08-03T10:06:54.798Z,58.18
2022-08-03T10:07:52.764Z,58.75
2022-08-03T10:08:52.775Z,56.61
2022-08-03T10:09:52.733Z,54.81
2022-08-03T10:10:52.800Z,57.64
2022-08-03T10:11:52.729Z,56.93
2022-08-03T10:12:52.711Z,59.70
2022-08-03T10:13:52.702Z,57.03
2022-08-03T10:14:53.689Z,57.58
2022-08-03T10:16:22.767Z,55.05
2022-08-03T10:16:53.676Z,57.67
2022-08-03T10:17:52.632Z,58.41
2022-08-03T10:18:52.655Z,57.62
2022-08-03T10:19:52.607Z,58.75
2022-08-03T10:20:52.686Z,56.62
2022-08-03T10:21:52.599Z,58.19
2022-08-03T10:22:52.707Z,57.08
2022-08-03T10:23:52.563Z,57.50
2022-08-03T10:24:52.568Z,56.94
2022-08-03T10:25:52.577Z,58.80
2022-08-03T10:26:52.537Z,57.07
2022-08-03T10:27:52.531Z,57.73
2022-08-03T10:28:52.495Z,56.90
2022-08-03T10:29:52.484Z,61.87
2022-08-03T10:30:52.504Z,59.85
2022-08-03T10:31:54.494Z,57.36
2022-08-03T10:32:53.449Z,58.97
2022-08-03T10:33:53.345Z,60.14
2022-08-03T10:35:00.037Z,59.48
2022-08-03T10:35:53.442Z,60.59
2022-08-03T10:36:52.400Z,59.24
2022-08-03T10:37:56.681Z,57.87
2022-08-03T10:38:52.416Z,59.97
2022-08-03T10:39:52.359Z,60.13
2022-08-03T10:40:55.888Z,59.28
2022-08-03T10:41:54.328Z,60.07
2022-08-03T10:42:52.330Z,60.48
2022-08-03T10:43:52.306Z,57.60
2022-08-03T10:44:52.299Z,56.48
2022-08-03T10:45:52.304Z,59.33
2022-08-03T10:46:52.261Z,58.35
2022-08-03T10:47:52.251Z,60.50
2022-08-03T10:48:52.313Z,58.27
2022-08-03T10:49:52.255Z,59.26
2022-08-03T10:50:52.249Z,58.85
2022-08-03T10:51:54.277Z,58.53
2022-08-03T10:52:52.177Z,59.25
2022-08-03T10:53:55.088Z,58.82
2022-08-03T10:54:52.137Z,58.78
2022-08-03T10:55:52.169Z,59.00
2022-08-03T10:56:52.126Z,59.67
2022-08-03T10:57:52.534Z,59.09
2022-08-03T10:58:57.669Z,58.85
2022-08-03T10:59:53.110Z,59.39
2022-08-03T11:00:52.159Z,59.22
2022-08-03T11:01:58.170Z,59.37
2022-08-03T11:02:53.042Z,60.41
2022-08-03T11:03:52.035Z,59.89
2022-08-03T11:04:52.033Z,61.27
2022-08-03T11:05:52.043Z,59.52
2022-08-03T11:06:51.994Z,58.86
2022-08-03T11:07:53.055Z,56.68
2022-08-03T11:08:51.951Z,58.14
2022-08-03T11:09:51.995Z,58.08
2022-08-03T11:10:51.944Z,58.17
2022-08-03T11:11:51.896Z,59.69
2022-08-03T11:12:51.900Z,58.03
2022-08-03T11:13:51.901Z,58.26
2022-08-03T11:14:51.869Z,59.39
2022-08-03T11:15:51.898Z,59.99
2022-08-03T11:16:51.851Z,58.09
2022-08-03T11:17:56.020Z,58.47
2022-08-03T11:18:51.815Z,59.51
2022-08-03T11:19:57.063Z,59.98
2022-08-03T11:20:52.797Z,57.63
2022-08-03T11:21:51.771Z,60.75
2022-08-03T11:22:51.739Z,61.01
2022-08-03T11:24:04.888Z,60.70
2022-08-03T11:24:52.731Z,60.05
2022-08-03T11:25:55.134Z,60.65
2022-08-03T11:26:51.701Z,58.61
2022-08-03T11:27:51.649Z,59.32
2022-08-03T11:28:51.654Z,58.84
2022-08-03T11:29:51.614Z,57.84
2022-08-03T11:30:51.643Z,59.77
2022-08-03T11:31:51.971Z,60.40
2022-08-03T11:32:51.577Z,60.00
2022-08-03T11:33:51.563Z,59.49
2022-08-03T11:34:51.566Z,55.71
2022-08-03T11:35:51.628Z,58.49
2022-08-03T11:36:51.532Z,58.18
2022-08-03T11:38:01.931Z,59.86
2022-08-03T11:38:52.493Z,58.28
2022-08-03T11:40:23.877Z,59.44
2022-08-03T11:40:51.551Z,60.53
2022-08-03T11:41:51.497Z,58.15
2022-08-03T11:42:51.510Z,57.58
2022-08-03T11:43:51.497Z,60.20
2022-08-03T11:44:51.424Z,58.19
2022-08-03T11:45:51.505Z,59.43
2022-08-03T11:46:51.418Z,59.40
2022-08-03T11:47:51.656Z,61.08
2022-08-03T11:48:52.467Z,62.50
2022-08-03T11:49:51.378Z,61.59
2022-08-03T11:50:51.431Z,59.14
2022-08-03T11:51:51.334Z,59.72
2022-08-03T11:52:51.331Z,59.80
2022-08-03T11:53:51.311Z,58.78
2022-08-03T11:54:56.967Z,57.71
2022-08-03T11:55:52.306Z,58.36
2022-08-03T11:56:51.269Z,60.74
2022-08-03T11:59:01.814Z,59.33
2022-08-03T11:59:16.737Z,60.13
2022-08-03T11:59:52.223Z,61.58
2022-08-03T12:00:51.261Z,62.14
2022-08-03T12:01:51.228Z,60.51
2022-08-03T12:02:51.244Z,57.43
2022-08-03T12:03:51.200Z,59.49
2022-08-03T12:04:51.186Z,58.21
2022-08-03T12:05:52.597Z,59.53
2022-08-03T12:06:51.249Z,60.10
2022-08-03T12:08:03.409Z,61.62
2022-08-03T12:08:52.087Z,61.81
2022-08-03T12:09:51.077Z,59.98
2022-08-03T12:10:51.128Z,59.44
2022-08-03T12:11:59.994Z,60.67
2022-08-03T12:12:52.076Z,59.29
2022-08-03T12:14:26.826Z,59.73
2022-08-03T12:14:52.530Z,57.06
2022-08-03T12:15:52.018Z,56.97
2022-08-03T12:16:50.996Z,57.95
2022-08-03T12:17:53.724Z,57.67
2022-08-03T12:18:51.936Z,57.30
2022-08-03T12:19:50.946Z,58.55
2022-08-03T12:20:51.067Z,60.14
2022-08-03T12:21:57.395Z,59.03
2022-08-03T12:22:51.877Z,60.67
2022-08-03T12:23:50.910Z,60.29
2022-08-03T12:24:50.851Z,58.57
2022-08-03T12:25:50.875Z,59.97
2022-08-03T12:26:59.543Z,60.65
2022-08-03T12:27:51.799Z,59.87
2022-08-03T12:28:50.851Z,59.86
2022-08-03T12:29:58.177Z,58.13
2022-08-03T12:30:51.821Z,61.06
2022-08-03T12:31:50.767Z,61.00
2022-08-03T12:32:50.765Z,60.08
2022-08-03T12:33:50.794Z,57.81
2022-08-03T12:34:50.742Z,57.64
2022-08-03T12:35:52.312Z,59.31
2022-08-03T12:36:50.804Z,59.86
2022-08-03T12:37:50.691Z,60.98
2022-08-03T12:38:50.682Z,61.57
2022-08-03T12:40:01.607Z,61.52
2022-08-03T12:40:51.672Z,61.16
2022-08-03T12:41:50.627Z,61.31
2022-08-03T12:42:50.611Z,59.86
2022-08-03T12:43:50.670Z,58.76
2022-08-03T12:44:50.567Z,57.84
2022-08-03T12:45:51.667Z,58.44
2022-08-03T12:46:50.563Z,58.90
2022-08-03T12:47:51.524Z,60.69
2022-08-03T12:48:50.541Z,61.13
2022-08-03T12:49:50.458Z,58.11
2022-08-03T12:50:53.586Z,60.18
2022-08-03T12:51:50.469Z,61.66